createdAt,value
2018-12-11T00:00:33.855Z,2.50
2018-12-11T00:03:04.583Z,2.57
2018-12-11T00:05:32.981Z,2.55
2018-12-11T00:08:03.725Z,2.55
2018-12-11T00:10:32.240Z,2.49
2018-12-11T00:13:00.693Z,2.63
2018-12-11T00:15:29.103Z,2.70
2018-12-11T00:17:57.636Z,2.72
2018-12-11T00:20:27.439Z,2.71
2018-12-11T00:22:56.093Z,2.71
2018-12-11T00:25:24.548Z,2.62
2018-12-11T00:27:52.982Z,2.62
2018-12-11T00:30:21.392Z,2.67
2018-12-11T00:32:49.816Z,2.65
2018-12-11T00:35:18.223Z,2.69
2018-12-11T00:37:46.629Z,2.66
2018-12-11T00:40:15.229Z,2.59
2018-12-11T00:42:43.669Z,2.55
2018-12-11T00:45:12.304Z,2.50
2018-12-11T00:47:40.752Z,2.43
2018-12-11T00:50:09.316Z,2.46
2018-12-11T00:52:37.788Z,2.47
2018-12-11T00:55:06.192Z,2.46
2018-12-11T00:57:34.622Z,2.42
2018-12-11T01:00:05.648Z,2.52
2018-12-11T01:02:34.079Z,2.48
2018-12-11T01:05:04.546Z,2.39
2018-12-11T01:07:32.966Z,2.34
2018-12-11T01:10:03.632Z,2.35
2018-12-11T01:12:32.061Z,2.41
2018-12-11T01:15:00.456Z,2.36
2018-12-11T01:17:28.883Z,2.37
2018-12-11T01:19:57.317Z,2.34
2018-12-11T01:22:25.799Z,2.34
2018-12-11T01:24:54.242Z,2.32
2018-12-11T01:27:22.724Z,2.27
2018-12-11T01:29:51.115Z,2.27
2018-12-11T01:32:19.557Z,2.29
2018-12-11T01:34:47.953Z,2.26
2018-12-11T01:37:16.389Z,2.34
2018-12-11T01:39:44.811Z,2.31
2018-12-11T01:42:13.266Z,2.31
2018-12-11T01:44:41.656Z,2.31
2018-12-11T01:47:10.103Z,2.23
2018-12-11T01:49:38.508Z,2.30
2018-12-11T01:52:06.952Z,2.33
2018-12-11T01:54:35.347Z,2.34
2018-12-11T01:57:05.148Z,2.27
2018-12-11T01:59:33.550Z,2.25
2018-12-11T02:02:04.480Z,2.31
2018-12-11T02:04:32.881Z,2.30
2018-12-11T02:07:03.657Z,2.28
2018-12-11T02:09:32.058Z,2.24
2018-12-11T02:12:00.480Z,2.26
2018-12-11T02:14:28.889Z,2.20
2018-12-11T02:16:57.316Z,2.18
2018-12-11T02:19:25.721Z,2.25
2018-12-11T02:21:54.137Z,2.17
2018-12-11T02:24:22.541Z,2.26
2018-12-11T02:26:51.088Z,2.20
2018-12-11T02:29:19.476Z,2.13
2018-12-11T02:31:47.894Z,2.16
2018-12-11T02:34:16.290Z,2.18
2018-12-11T02:36:44.727Z,2.17
2018-12-11T02:39:13.206Z,2.13
2018-12-11T02:41:41.809Z,2.19
2018-12-11T02:44:10.351Z,2.21
2018-12-11T02:46:38.773Z,2.21
2018-12-11T02:49:07.170Z,2.19
2018-12-11T02:51:35.631Z,2.19
2018-12-11T02:54:05.869Z,2.29
2018-12-11T02:56:34.317Z,2.32
2018-12-11T02:59:05.293Z,2.16
2018-12-11T03:01:33.729Z,2.23
2018-12-11T03:04:04.529Z,2.27
2018-12-11T03:06:32.980Z,2.19
2018-12-11T03:09:03.595Z,2.26
2018-12-11T03:11:32.017Z,2.20
2018-12-11T03:14:00.428Z,2.16
2018-12-11T03:16:28.862Z,2.18
2018-12-11T03:18:57.260Z,2.17
2018-12-11T03:21:25.696Z,2.21
2018-12-11T03:23:54.099Z,2.14
2018-12-11T03:26:22.510Z,2.11
2018-12-11T03:28:50.939Z,2.08
2018-12-11T03:31:19.345Z,2.03
2018-12-11T03:33:47.772Z,2.09
2018-12-11T03:36:16.165Z,2.08
2018-12-11T03:38:44.583Z,2.15
2018-12-11T03:41:13.016Z,2.20
2018-12-11T03:43:41.458Z,2.23
2018-12-11T03:46:09.902Z,2.24
2018-12-11T03:48:38.448Z,2.26
2018-12-11T03:51:06.898Z,2.29
2018-12-11T03:53:35.330Z,2.34
2018-12-11T03:56:05.131Z,2.34
2018-12-11T03:58:33.661Z,2.42
2018-12-11T04:01:04.562Z,2.31
2018-12-11T04:03:33.089Z,2.38
2018-12-11T04:06:03.680Z,2.34
2018-12-11T04:08:32.085Z,2.42
2018-12-11T04:11:00.572Z,2.46
2018-12-11T04:13:28.975Z,2.45
2018-12-11T04:15:57.373Z,2.41
2018-12-11T04:18:25.796Z,2.39
2018-12-11T04:20:54.219Z,2.37
2018-12-11T04:23:22.627Z,2.34
2018-12-11T04:25:51.057Z,2.32
2018-12-11T04:28:19.589Z,2.29
2018-12-11T04:30:48.151Z,2.31
2018-12-11T04:33:16.544Z,2.34
2018-12-11T04:35:45.005Z,2.25
2018-12-11T04:38:13.504Z,2.25
2018-12-11T04:40:42.004Z,2.29
2018-12-11T04:43:10.411Z,2.28
2018-12-11T04:45:38.833Z,2.28
2018-12-11T04:48:07.240Z,2.31
2018-12-11T04:50:35.667Z,2.26
2018-12-11T04:53:05.097Z,2.24
2018-12-11T04:55:33.612Z,2.28
2018-12-11T04:58:04.576Z,2.34
2018-12-11T05:00:33.004Z,2.34
2018-12-11T05:03:03.618Z,2.34
2018-12-11T05:05:32.025Z,2.36
2018-12-11T05:08:03.467Z,2.39
2018-12-11T05:10:31.895Z,2.41
2018-12-11T05:13:00.279Z,2.46
2018-12-11T05:15:28.707Z,2.46
2018-12-11T05:17:57.087Z,2.42
2018-12-11T05:20:25.495Z,2.42
2018-12-11T05:22:53.888Z,2.35
2018-12-11T05:25:22.290Z,2.34
2018-12-11T05:27:50.676Z,2.31
2018-12-11T05:30:19.085Z,2.30
2018-12-11T05:32:47.495Z,2.34
2018-12-11T05:35:15.904Z,2.33
2018-12-11T05:37:44.284Z,2.28
2018-12-11T05:40:12.683Z,2.30
2018-12-11T05:42:41.115Z,2.27
2018-12-11T05:45:09.531Z,2.30
2018-12-11T05:47:37.904Z,2.34
2018-12-11T05:50:06.954Z,2.33
2018-12-11T05:52:35.348Z,2.21
2018-12-11T05:55:06.016Z,2.25
2018-12-11T05:57:34.387Z,2.29
2018-12-11T06:00:08.088Z,2.23
2018-12-11T06:02:36.468Z,2.19
2018-12-11T06:05:05.837Z,2.21
2018-12-11T06:07:34.247Z,2.29
2018-12-11T06:10:03.615Z,2.29
2018-12-11T06:12:32.059Z,2.37
2018-12-11T06:15:00.441Z,2.35
2018-12-11T06:17:28.876Z,2.32
2018-12-11T06:19:57.259Z,2.29
2018-12-11T06:22:25.675Z,2.25
2018-12-11T06:24:54.067Z,2.20
2018-12-11T06:27:22.472Z,2.21
2018-12-11T06:29:50.859Z,2.15
2018-12-11T06:32:19.267Z,2.08
2018-12-11T06:34:47.635Z,2.11
2018-12-11T06:37:16.053Z,2.08
2018-12-11T06:39:44.432Z,2.13
2018-12-11T06:42:12.841Z,2.16
2018-12-11T06:44:41.240Z,2.20
2018-12-11T06:47:09.661Z,2.27
2018-12-11T06:49:38.040Z,2.27
2018-12-11T06:52:06.564Z,2.28
2018-12-11T06:54:34.940Z,2.32
2018-12-11T06:57:05.180Z,2.29
2018-12-11T06:59:33.560Z,2.27
2018-12-11T07:02:03.658Z,2.22
2018-12-11T07:04:32.045Z,2.16
2018-12-11T07:07:00.468Z,2.06
2018-12-11T07:09:28.845Z,1.95
2018-12-11T07:11:57.260Z,1.91
2018-12-11T07:14:25.642Z,1.88
2018-12-11T07:16:54.073Z,1.82
2018-12-11T07:19:22.545Z,1.78
2018-12-11T07:21:50.965Z,1.82
2018-12-11T07:24:19.352Z,1.93
2018-12-11T07:26:47.755Z,1.98
2018-12-11T07:29:16.150Z,2.05
2018-12-11T07:31:44.564Z,2.10
2018-12-11T07:34:12.940Z,2.15
2018-12-11T07:36:41.348Z,2.12
2018-12-11T07:39:09.743Z,2.12
2018-12-11T07:41:38.189Z,2.21
2018-12-11T07:44:06.604Z,2.33
2018-12-11T07:46:34.991Z,2.27
2018-12-11T07:49:05.825Z,2.22
2018-12-11T07:51:34.272Z,2.10
2018-12-11T07:54:04.649Z,1.98
2018-12-11T07:56:33.054Z,1.91
2018-12-11T07:59:03.718Z,1.85
2018-12-11T08:01:32.120Z,1.85
2018-12-11T08:04:00.546Z,1.87
2018-12-11T08:06:28.916Z,1.85
2018-12-11T08:08:57.336Z,1.86
2018-12-11T08:11:25.736Z,1.91
2018-12-11T08:13:54.136Z,1.90
2018-12-11T08:16:22.647Z,1.97
2018-12-11T08:18:51.573Z,2.03
2018-12-11T08:21:19.962Z,2.05
2018-12-11T08:23:48.371Z,2.10
2018-12-11T08:26:16.763Z,2.27
2018-12-11T08:28:45.188Z,2.38
2018-12-11T08:31:13.571Z,2.45
2018-12-11T08:33:42.143Z,2.36
2018-12-11T08:36:10.528Z,2.38
2018-12-11T08:38:38.956Z,2.29
2018-12-11T08:41:07.343Z,2.25
2018-12-11T08:43:35.800Z,2.27
2018-12-11T08:46:05.831Z,2.28
2018-12-11T08:48:34.208Z,2.25
2018-12-11T08:51:05.659Z,2.33
2018-12-11T08:53:34.041Z,2.35
2018-12-11T08:56:04.566Z,2.34
2018-12-11T08:58:33.137Z,2.34
2018-12-11T09:01:03.387Z,2.27
2018-12-11T09:03:31.767Z,2.27
2018-12-11T09:06:00.652Z,2.37
2018-12-11T09:08:29.024Z,2.45
2018-12-11T09:10:57.404Z,2.39
2018-12-11T09:13:25.820Z,2.42
2018-12-11T09:15:54.213Z,2.49
2018-12-11T09:18:22.967Z,2.49
2018-12-11T09:20:51.352Z,2.41
2018-12-11T09:23:19.760Z,2.38
2018-12-11T09:25:48.132Z,2.41
2018-12-11T09:28:16.549Z,2.47
2018-12-11T09:30:44.936Z,2.45
2018-12-11T09:33:13.368Z,2.46
2018-12-11T09:35:41.744Z,2.53
2018-12-11T09:38:10.141Z,2.52
2018-12-11T09:40:38.540Z,2.59
2018-12-11T09:43:06.935Z,2.61
2018-12-11T09:45:35.475Z,2.67
2018-12-11T09:48:05.070Z,2.67
2018-12-11T09:50:33.459Z,2.72
2018-12-11T09:53:03.707Z,2.67
2018-12-11T09:55:32.150Z,2.73
2018-12-11T09:58:00.572Z,2.69
2018-12-11T10:00:28.963Z,2.64
2018-12-11T10:02:57.372Z,2.70
2018-12-11T10:05:25.770Z,2.65
2018-12-11T10:07:54.219Z,2.73
2018-12-11T10:10:22.604Z,2.78
2018-12-11T10:12:50.994Z,2.93
2018-12-11T10:15:19.416Z,2.98
2018-12-11T10:17:47.800Z,3.00
2018-12-11T10:20:16.540Z,2.98
2018-12-11T10:22:44.929Z,2.99
2018-12-11T10:25:13.445Z,2.95
2018-12-11T10:27:41.827Z,2.90
2018-12-11T10:30:10.880Z,2.87
2018-12-11T10:32:39.307Z,2.84
2018-12-11T10:35:08.160Z,2.77
2018-12-11T10:37:36.609Z,2.80
2018-12-11T10:40:07.153Z,2.87
2018-12-11T10:42:35.612Z,2.94
2018-12-11T10:45:05.756Z,2.94
2018-12-11T10:47:34.324Z,2.94
2018-12-11T10:50:06.720Z,2.98
2018-12-11T10:52:35.463Z,2.90
2018-12-11T10:55:05.138Z,3.10
2018-12-11T10:57:33.693Z,3.25
2018-12-11T11:00:05.912Z,3.17
2018-12-11T11:02:36.324Z,3.02
2018-12-11T11:05:05.408Z,2.95
2018-12-11T11:07:33.808Z,2.88
2018-12-11T11:10:07.414Z,2.93
2018-12-11T11:12:35.800Z,2.98
2018-12-11T11:15:05.608Z,3.09
2018-12-11T11:17:33.995Z,3.13
2018-12-11T11:20:04.604Z,3.14
2018-12-11T11:22:32.975Z,3.11
2018-12-11T11:25:03.641Z,3.13
2018-12-11T11:27:32.103Z,3.16
2018-12-11T11:30:00.580Z,3.15
2018-12-11T11:32:29.144Z,3.06
2018-12-11T11:34:57.520Z,2.82
2018-12-11T11:37:25.948Z,2.61
2018-12-11T11:39:54.335Z,2.47
2018-12-11T11:42:22.940Z,2.40
2018-12-11T11:44:51.979Z,2.30
2018-12-11T11:47:20.392Z,2.24
2018-12-11T11:49:48.828Z,2.26
2018-12-11T11:52:17.295Z,2.43
2018-12-11T11:54:46.123Z,2.65
2018-12-11T11:57:14.584Z,2.70
2018-12-11T11:59:43.631Z,2.72
2018-12-11T12:02:12.058Z,2.71
2018-12-11T12:04:40.446Z,2.98
2018-12-11T12:07:09.135Z,3.19
2018-12-11T12:09:40.794Z,3.08
2018-12-11T12:12:09.211Z,3.04
2018-12-11T12:14:37.640Z,3.19
2018-12-11T12:17:06.166Z,3.23
2018-12-11T12:19:34.599Z,3.30
2018-12-11T12:22:05.280Z,3.22
2018-12-11T12:24:33.729Z,3.24
2018-12-11T12:27:04.348Z,3.29
2018-12-11T12:29:32.772Z,3.04
2018-12-11T12:32:04.391Z,3.00
2018-12-11T12:34:32.812Z,3.01
2018-12-11T12:37:04.325Z,2.98
2018-12-11T12:39:32.750Z,2.82
2018-12-11T12:44:35.023Z,2.44
2018-12-11T12:47:06.580Z,2.44
2018-12-11T12:49:36.951Z,2.41
2018-12-11T12:52:06.719Z,2.43
2018-12-11T12:54:35.100Z,2.51
2018-12-11T12:57:07.213Z,2.49
2018-12-11T12:59:35.609Z,2.42
2018-12-11T13:02:05.272Z,2.44
2018-12-11T13:04:39.934Z,2.53
2018-12-11T13:07:08.466Z,2.59
2018-12-11T13:09:36.900Z,2.64
2018-12-11T13:12:08.975Z,2.67
2018-12-11T13:14:37.396Z,2.62
2018-12-11T13:17:06.504Z,2.60
2018-12-11T13:19:35.463Z,2.66
2018-12-11T13:22:07.479Z,2.64
2018-12-11T13:24:35.971Z,2.65
2018-12-11T13:27:08.079Z,2.72
2018-12-11T13:29:38.945Z,2.74
2018-12-11T13:32:07.381Z,2.69
2018-12-11T13:34:36.056Z,2.74
2018-12-11T13:37:05.827Z,2.75
2018-12-11T13:39:34.283Z,2.80
2018-12-11T13:42:05.270Z,2.76
2018-12-11T13:44:33.865Z,2.79
2018-12-11T13:47:04.744Z,2.84
2018-12-11T13:49:33.179Z,2.77
2018-12-11T13:52:03.498Z,2.78
2018-12-11T13:54:32.187Z,2.73
2018-12-11T13:57:00.812Z,2.71
2018-12-11T13:59:29.445Z,2.63
2018-12-11T14:01:57.944Z,2.72
2018-12-11T14:04:26.403Z,2.71
2018-12-11T14:06:55.195Z,2.64
2018-12-11T14:09:28.712Z,2.67
2018-12-11T14:11:57.257Z,2.71
2018-12-11T14:14:25.643Z,2.64
2018-12-11T14:16:54.324Z,2.67
2018-12-11T14:19:23.024Z,2.73
2018-12-11T14:21:51.460Z,2.78
2018-12-11T14:24:20.292Z,2.78
2018-12-11T14:26:49.248Z,2.75
2018-12-11T14:29:18.056Z,2.76
2018-12-11T14:31:46.459Z,2.69
2018-12-11T14:34:14.833Z,2.71
2018-12-11T14:36:43.619Z,2.67
2018-12-11T14:39:15.067Z,2.62
2018-12-11T14:41:43.501Z,2.67
2018-12-11T14:44:12.000Z,2.73
2018-12-11T14:46:40.524Z,2.77
2018-12-11T14:49:08.916Z,2.72
2018-12-11T14:51:37.749Z,2.70
2018-12-11T14:54:06.224Z,2.70
2018-12-11T14:56:34.665Z,2.62
2018-12-11T14:59:05.408Z,2.54
2018-12-11T15:01:33.865Z,2.48
2018-12-11T15:04:04.549Z,2.47
2018-12-11T15:06:33.015Z,2.51
2018-12-11T15:09:06.632Z,2.54
2018-12-11T15:11:35.179Z,2.56
2018-12-11T15:14:06.376Z,2.55
2018-12-11T15:16:35.120Z,2.58
2018-12-11T15:19:05.088Z,2.58
2018-12-11T15:21:33.463Z,2.52
2018-12-11T15:24:05.351Z,2.49
2018-12-11T15:26:33.747Z,2.48
2018-12-11T15:29:05.268Z,2.48
2018-12-11T15:31:33.653Z,2.48
2018-12-11T15:34:04.383Z,2.46
2018-12-11T15:36:32.802Z,2.48
2018-12-11T15:39:03.497Z,2.54
2018-12-11T15:41:31.884Z,2.47
2018-12-11T15:44:00.332Z,2.51
2018-12-11T15:46:28.757Z,2.49
2018-12-11T15:48:57.148Z,2.42
2018-12-11T15:51:25.739Z,2.50
2018-12-11T15:53:54.143Z,2.44
2018-12-11T15:56:22.587Z,2.40
2018-12-11T15:58:50.975Z,2.38
2018-12-11T16:01:19.420Z,2.33
2018-12-11T16:03:47.796Z,2.36
2018-12-11T16:06:16.251Z,2.34
2018-12-11T16:08:44.630Z,2.36
2018-12-11T16:11:13.075Z,2.42
2018-12-11T16:13:41.468Z,2.51
2018-12-11T16:16:09.909Z,2.53
2018-12-11T16:18:38.306Z,2.54
2018-12-11T16:21:06.779Z,2.52
2018-12-11T16:23:36.209Z,2.60
2018-12-11T16:26:05.089Z,2.60
2018-12-11T16:28:33.516Z,2.58
2018-12-11T16:31:03.647Z,2.58
2018-12-11T16:33:32.083Z,2.60
2018-12-11T16:36:00.459Z,2.54
2018-12-11T16:38:28.884Z,2.47
2018-12-11T16:40:57.264Z,2.47
2018-12-11T16:43:26.028Z,2.49
2018-12-11T16:45:54.423Z,2.45
2018-12-11T16:48:23.104Z,2.40
2018-12-11T16:50:51.488Z,2.43
2018-12-11T16:53:19.891Z,2.41
2018-12-11T16:55:48.343Z,2.49
2018-12-11T16:58:16.740Z,2.50
2018-12-11T17:00:45.171Z,2.58
2018-12-11T17:03:13.945Z,2.59
2018-12-11T17:05:42.481Z,2.56
2018-12-11T17:08:10.890Z,2.50
2018-12-11T17:10:40.036Z,2.50
2018-12-11T17:13:08.810Z,2.48
2018-12-11T17:15:38.330Z,2.52
2018-12-11T17:18:06.988Z,2.47
2018-12-11T17:20:36.880Z,2.49
2018-12-11T17:23:05.437Z,2.53
2018-12-11T17:25:33.965Z,2.54
2018-12-11T17:28:07.024Z,2.50
2018-12-11T17:30:35.843Z,2.49
2018-12-11T17:33:05.168Z,2.52
2018-12-11T17:35:33.635Z,2.54
2018-12-11T17:38:05.382Z,2.59
2018-12-11T17:40:33.823Z,2.58
2018-12-11T17:43:04.749Z,2.56
2018-12-11T17:45:33.360Z,2.48
2018-12-11T17:48:05.389Z,2.54
2018-12-11T17:50:34.160Z,2.62
2018-12-11T17:53:04.086Z,2.60
2018-12-11T17:55:33.476Z,2.61
2018-12-11T17:58:03.679Z,2.56
2018-12-11T18:00:32.212Z,2.58
2018-12-11T18:03:00.723Z,2.57
2018-12-11T18:05:29.183Z,2.61
2018-12-11T18:07:57.673Z,2.56
2018-12-11T18:10:26.532Z,2.59
2018-12-11T18:12:54.980Z,2.56
2018-12-11T18:15:23.408Z,2.60
2018-12-11T18:17:51.829Z,2.60
2018-12-11T18:20:20.292Z,2.61
2018-12-11T18:22:48.702Z,2.64
2018-12-11T18:25:17.098Z,2.63
2018-12-11T18:27:45.552Z,2.65
2018-12-11T18:30:13.973Z,2.63
2018-12-11T18:32:42.412Z,2.52
2018-12-11T18:35:13.528Z,2.51
2018-12-11T18:37:41.956Z,2.56
2018-12-11T18:40:10.961Z,2.51
2018-12-11T18:42:39.396Z,2.54
2018-12-11T18:45:08.796Z,2.57
2018-12-11T18:47:37.277Z,2.54
2018-12-11T18:50:06.433Z,2.57
2018-12-11T18:52:34.862Z,2.56
2018-12-11T18:55:05.480Z,2.54
2018-12-11T18:57:34.015Z,2.56
2018-12-11T19:00:04.517Z,2.52
2018-12-11T19:02:32.933Z,2.43
2018-12-11T19:05:03.896Z,2.45
2018-12-11T19:07:32.312Z,2.48
2018-12-11T19:10:00.716Z,2.42
2018-12-11T19:12:29.158Z,2.38
2018-12-11T19:14:57.568Z,2.37
2018-12-11T19:17:25.970Z,2.44
2018-12-11T19:19:54.400Z,2.37
2018-12-11T19:22:22.859Z,2.43
2018-12-11T19:24:53.946Z,2.41
2018-12-11T19:27:22.341Z,2.48
2018-12-11T19:29:50.775Z,2.53
2018-12-11T19:32:19.786Z,2.49
2018-12-11T19:34:48.166Z,2.48
2018-12-11T19:37:16.643Z,2.45
2018-12-11T19:39:45.275Z,2.50
2018-12-11T19:42:13.676Z,2.49
2018-12-11T19:44:42.111Z,2.51
2018-12-11T19:47:10.547Z,2.47
2018-12-11T19:49:39.000Z,2.47
2018-12-11T19:52:07.595Z,2.53
2018-12-11T19:54:36.060Z,2.50
2018-12-11T19:57:05.784Z,2.51
2018-12-11T19:59:34.403Z,2.46
2018-12-11T20:02:05.392Z,2.44
2018-12-11T20:04:34.426Z,2.48
2018-12-11T20:07:05.919Z,2.45
2018-12-11T20:09:37.162Z,2.48
2018-12-11T20:12:05.900Z,2.51
2018-12-11T20:14:34.360Z,2.48
2018-12-11T20:17:05.611Z,2.43
2018-12-11T20:19:34.044Z,2.37
2018-12-11T20:22:04.987Z,2.44
2018-12-11T20:24:33.719Z,2.45
2018-12-11T20:27:05.262Z,2.56
2018-12-11T20:29:33.956Z,2.57
2018-12-11T20:32:05.394Z,2.53
2018-12-11T20:34:34.743Z,2.57
2018-12-11T20:37:07.037Z,2.61
2018-12-11T20:39:35.447Z,2.71
2018-12-11T20:42:07.510Z,2.64
2018-12-11T20:44:36.133Z,2.54
2018-12-11T20:47:05.295Z,2.49
2018-12-11T20:49:33.718Z,2.48
2018-12-11T20:52:05.321Z,2.44
2018-12-11T20:54:33.809Z,2.49
2018-12-11T20:57:04.636Z,2.48
2018-12-11T20:59:33.061Z,2.52
2018-12-11T21:02:03.714Z,2.47
2018-12-11T21:04:32.358Z,2.56
2018-12-11T21:07:00.769Z,2.48
2018-12-11T21:09:29.165Z,2.48
2018-12-11T21:11:57.608Z,2.51
2018-12-11T21:14:26.140Z,2.56
2018-12-11T21:16:55.210Z,2.53
2018-12-11T21:19:23.639Z,2.48
2018-12-11T21:21:52.165Z,2.47
2018-12-11T21:24:20.973Z,2.51
2018-12-11T21:26:49.860Z,2.56
2018-12-11T21:29:18.300Z,2.46
2018-12-11T21:31:46.700Z,2.51
2018-12-11T21:34:15.255Z,2.45
2018-12-11T21:36:43.655Z,2.51
2018-12-11T21:39:12.152Z,2.55
2018-12-11T21:41:40.632Z,2.56
2018-12-11T21:44:09.740Z,2.58
2018-12-11T21:46:38.331Z,2.68
2018-12-11T21:49:07.496Z,2.66
2018-12-11T21:51:36.229Z,2.58
2018-12-11T21:54:07.609Z,2.62
2018-12-11T21:56:36.218Z,2.60
2018-12-11T21:59:06.468Z,2.53
2018-12-11T22:01:34.975Z,2.59
2018-12-11T22:04:10.248Z,2.65
2018-12-11T22:06:39.381Z,2.56
2018-12-11T22:09:07.900Z,2.54
2018-12-11T22:11:36.801Z,2.52
2018-12-11T22:14:06.015Z,2.48
2018-12-11T22:16:34.432Z,2.41
2018-12-11T22:19:06.003Z,2.31
2018-12-11T22:21:34.648Z,2.33
2018-12-11T22:24:05.224Z,2.32
2018-12-11T22:26:33.639Z,2.29
2018-12-11T22:29:04.688Z,2.30
2018-12-11T22:31:34.109Z,2.36
2018-12-11T22:34:06.005Z,2.37
2018-12-11T22:36:34.412Z,2.30
2018-12-11T22:39:07.370Z,2.33
2018-12-11T22:41:36.161Z,2.19
2018-12-11T22:44:05.871Z,2.25
2018-12-11T22:46:34.615Z,2.28
2018-12-11T22:49:05.912Z,2.28
2018-12-11T22:51:35.076Z,2.25
2018-12-11T22:54:06.855Z,2.36
2018-12-11T22:56:35.277Z,2.34
2018-12-11T22:59:05.064Z,2.33
2018-12-11T23:01:33.440Z,2.44
2018-12-11T23:04:03.706Z,2.42
2018-12-11T23:06:32.103Z,2.39
2018-12-11T23:09:00.615Z,2.40
2018-12-11T23:11:29.019Z,2.33
2018-12-11T23:13:57.400Z,2.29
2018-12-11T23:16:25.819Z,2.42
2018-12-11T23:18:54.199Z,2.32
2018-12-11T23:21:22.614Z,2.28
2018-12-11T23:23:50.995Z,2.28
2018-12-11T23:26:19.411Z,2.22
2018-12-11T23:28:47.800Z,2.19
2018-12-11T23:31:16.220Z,2.10
2018-12-11T23:33:44.591Z,2.06
2018-12-11T23:36:13.007Z,2.07
2018-12-11T23:38:41.380Z,2.13
2018-12-11T23:41:09.788Z,2.09
2018-12-11T23:43:38.159Z,2.01
2018-12-11T23:46:06.570Z,2.02
2018-12-11T23:48:34.986Z,2.03
2018-12-11T23:51:05.838Z,2.03
2018-12-11T23:53:34.263Z,2.02
2018-12-11T23:56:06.056Z,2.03
2018-12-11T23:58:34.451Z,2.00
